Time;durP1;ratioP1;P1;durP2;ratioP2;P2;SDS_P1;SDS_P2;PMS_P1;PMS_P2;Temp;Humidity;BMP_temperature;BMP_pressure;BME280_temperature;BME280_humidity;BME280_pressure;Samples;Min_cycle;Max_cycle;Signal;HPM_P1;HPM_P2
2021/06/05 00:00:19;;;;;;;47.65;34.45;;;;;;;-145.50;100.00;65435.88;5058926;28;20079;-77
2021/06/05 00:03:07;;;;;;;41.80;33.03;;;;;;;-145.50;100.00;65435.88;5061805;28;20124;-77
2021/06/05 00:06:00;;;;;;;36.47;29.35;;;;;;;-145.50;100.00;65435.88;5065423;28;20507;-77
2021/06/05 00:08:49;;;;;;;40.03;31.77;;;;;;;-145.50;100.00;65435.88;5058947;28;20045;-77
2021/06/05 00:11:37;;;;;;;40.03;30.58;;;;;;;-145.50;100.00;65435.88;5053824;28;20072;-77
2021/06/05 00:14:27;;;;;;;45.25;31.20;;;;;;;-145.50;100.00;65435.88;5060879;28;20080;-77
2021/06/05 00:17:14;;;;;;;46.20;35.28;;;;;;;-145.50;100.00;65435.88;5058876;28;20080;-77
2021/06/05 00:20:04;;;;;;;58.83;33.33;;;;;;;-145.50;100.00;65435.88;5064732;28;21596;-76
2021/06/05 00:22:51;;;;;;;55.53;35.03;;;;;;;-145.50;100.00;65435.88;5049920;28;20559;-75
2021/06/05 00:25:38;;;;;;;49.77;35.63;;;;;;;-145.50;100.00;65435.88;5060818;28;20514;-74
2021/06/05 00:28:26;;;;;;;45.95;34.15;;;;;;;-145.50;100.00;65435.88;5052570;28;20396;-75
2021/06/05 00:31:13;;;;;;;59.25;37.42;;;;;;;-145.50;100.00;65435.88;5064327;28;20468;-74
2021/06/05 00:34:01;;;;;;;63.95;36.33;;;;;;;-145.50;100.00;65435.88;5057664;28;20049;-73
2021/06/05 00:36:48;;;;;;;61.53;38.40;;;;;;;-145.50;100.00;65435.88;5064108;28;20508;-74
2021/06/05 00:40:15;;;;;;;48.03;38.10;;;;;;;-145.50;100.00;65435.88;5064662;28;20057;-74
2021/06/05 00:43:38;;;;;;;50.47;37.97;;;;;;;-145.50;100.00;65435.88;5060007;28;20119;-75
2021/06/05 00:46:27;;;;;;;53.00;39.50;;;;;;;-145.50;100.00;65435.88;5053493;28;20083;-75
2021/06/05 00:49:16;;;;;;;52.22;40.22;;;;;;;-145.50;100.00;65435.88;5060423;28;20098;-75
2021/06/05 00:52:06;;;;;;;61.25;42.60;;;;;;;-145.50;100.00;65435.88;5051130;28;20171;-74
2021/06/05 00:54:55;;;;;;;50.83;41.05;;;;;;;-145.50;100.00;65435.88;5058229;28;20142;-75
2021/06/05 00:57:43;;;;;;;55.63;42.40;;;;;;;-145.50;100.00;65435.88;5049441;28;20461;-74
2021/06/05 01:00:51;;;;;;;;;;;;;;;-145.50;100.00;65435.88;5073800;28;20467;-75
2021/06/05 01:04:17;;;;;;;53.58;41.83;;;;;;;-145.50;100.00;65435.88;5056976;28;20621;-76
2021/06/05 01:08:03;;;;;;;47.85;38.25;;;;;;;-145.50;100.00;65435.88;5055342;28;20120;-75
2021/06/05 01:11:46;;;;;;;48.78;38.53;;;;;;;-145.50;100.00;65435.88;5063220;28;20532;-75
2021/06/05 01:15:31;;;;;;;51.50;40.58;;;;;;;-145.50;100.00;65435.88;5057803;28;20056;-76
2021/06/05 01:19:21;;;;;;;52.63;39.92;;;;;;;-145.50;100.00;65435.88;5056232;28;20052;-76
2021/06/05 01:23:24;;;;;;;56.78;42.22;;;;;;;-145.50;100.00;65435.88;5055586;28;20149;-76
2021/06/05 01:27:18;;;;;;;49.72;38.15;;;;;;;-145.50;100.00;65435.88;5061453;28;20135;-76
2021/06/05 01:30:52;;;;;;;56.60;41.15;;;;;;;-145.50;100.00;65435.88;5067886;28;20143;-76
2021/06/05 01:34:19;;;;;;;51.15;39.90;;;;;;;-145.50;100.00;65435.88;5060653;28;20045;-76
2021/06/05 01:37:46;;;;;;;56.65;39.53;;;;;;;-145.50;100.00;65435.88;5054140;28;20496;-76
2021/06/05 01:41:14;;;;;;;50.42;38.63;;;;;;;-145.50;100.00;65435.88;5051373;28;20139;-76
2021/06/05 01:44:41;;;;;;;49.67;38.20;;;;;;;-145.50;100.00;65435.88;5062793;28;20167;-74
2021/06/05 01:48:08;;;;;;;49.45;37.75;;;;;;;-145.50;100.00;65435.88;5053620;28;20097;-74
2021/06/05 01:51:36;;;;;;;49.55;40.92;;;;;;;-145.50;100.00;65435.88;5056151;28;20086;-74
2021/06/05 01:55:14;;;;;;;49.08;39.05;;;;;;;-145.50;100.00;65435.88;5062008;28;20091;-75
2021/06/05 01:58:37;;;;;;;;;;;;;;;-145.50;100.00;65435.88;5056512;28;20083;-74
2021/06/05 02:01:55;;;;;;;47.80;38.83;;;;;;;-145.50;100.00;65435.88;5060343;28;19975;-75
2021/06/05 02:05:22;;;;;;;50.75;41.33;;;;;;;-145.50;100.00;65435.88;5045354;28;20059;-75
2021/06/05 02:08:48;;;;;;;44.88;38.10;;;;;;;-145.50;100.00;65435.88;5056828;28;20055;-75
2021/06/05 02:12:18;;;;;;;51.43;43.47;;;;;;;-145.50;100.00;65435.88;5071047;28;20123;-75
2021/06/05 02:15:31;;;;;;;61.25;48.70;;;;;;;-145.50;100.00;65435.88;5054969;28;20295;-77
2021/06/05 02:19:08;;;;;;;65.65;49.90;;;;;;;-145.50;100.00;65435.88;5055750;28;20071;-76
2021/06/05 02:22:33;;;;;;;65.35;52.17;;;;;;;-145.50;100.00;65435.88;5070801;28;20044;-77
2021/06/05 02:25:38;;;;;;;73.72;56.67;;;;;;;-145.50;100.00;65435.88;5054959;28;20151;-76
2021/06/05 02:28:49;;;;;;;72.07;55.67;;;;;;;-145.50;100.00;65435.88;5062966;28;20205;-76
2021/06/05 02:32:16;;;;;;;71.70;53.50;;;;;;;-145.50;100.00;65435.88;5058454;28;20140;-76
2021/06/05 02:35:08;;;;;;;76.93;58.27;;;;;;;-145.50;100.00;65435.88;5059520;28;20175;-77
2021/06/05 02:37:59;;;;;;;75.30;56.97;;;;;;;-145.50;100.00;65435.88;5054434;28;20095;-76
2021/06/05 02:41:02;;;;;;;82.82;63.25;;;;;;;-145.50;100.00;65435.88;5060329;28;20060;-76
2021/06/05 02:43:53;;;;;;;77.28;58.92;;;;;;;-145.50;100.00;65435.88;5047919;28;20139;-76
2021/06/05 02:46:43;;;;;;;79.55;59.95;;;;;;;-145.50;100.00;65435.88;5055718;28;20149;-76
2021/06/05 02:49:41;;;;;;;81.85;61.60;;;;;;;-145.50;100.00;65435.88;5060544;28;20083;-76
2021/06/05 02:52:41;;;;;;;86.80;63.20;;;;;;;-145.50;100.00;65435.88;5056472;28;20114;-75
2021/06/05 02:55:34;;;;;;;95.93;66.13;;;;;;;-145.50;100.00;65435.88;5061443;28;20143;-76
2021/06/05 02:58:23;;;;;;;87.15;60.92;;;;;;;-145.50;100.00;65435.88;5049033;28;20148;-75
2021/06/05 03:01:11;;;;;;;98.13;66.35;;;;;;;-145.50;100.00;65435.88;5052270;28;20140;-76
2021/06/05 03:04:01;;;;;;;99.00;66.38;;;;;;;-145.50;100.00;65435.88;5055714;28;20090;-76
2021/06/05 03:06:50;;;;;;;93.40;62.95;;;;;;;-145.50;100.00;65435.88;5054295;28;20048;-76
2021/06/05 03:09:39;;;;;;;103.55;68.50;;;;;;;-145.50;100.00;65435.88;5060124;28;20250;-76
2021/06/05 03:12:27;;;;;;;103.25;67.68;;;;;;;-145.50;100.00;65435.88;5065169;28;20136;-76
2021/06/05 03:15:15;;;;;;;102.82;65.25;;;;;;;-145.50;100.00;65435.88;5048731;28;20563;-75
2021/06/05 03:18:03;;;;;;;108.05;69.18;;;;;;;-145.50;100.00;65435.88;5059716;28;20098;-76
2021/06/05 03:20:53;;;;;;;106.13;67.88;;;;;;;-145.50;100.00;65435.88;5048225;28;20076;-75
2021/06/05 03:23:41;;;;;;;106.00;64.13;;;;;;;-145.50;100.00;65435.88;5050432;28;20476;-76
2021/06/05 03:26:30;;;;;;;111.75;66.20;;;;;;;-145.50;100.00;65435.88;5045111;28;20143;-76
2021/06/05 03:29:17;;;;;;;;;;;;;;;-145.50;100.00;65435.88;5059873;28;20559;-77
2021/06/05 03:32:05;;;;;;;113.43;69.32;;;;;;;-145.50;100.00;65435.88;5049857;28;20391;-76
2021/06/05 03:34:53;;;;;;;110.70;68.40;;;;;;;-145.50;100.00;65435.88;5060395;28;20070;-77
2021/06/05 03:37:40;;;;;;;124.32;73.00;;;;;;;-145.50;100.00;65435.88;5051364;28;20567;-77
2021/06/05 03:40:30;;;;;;;123.05;69.50;;;;;;;-145.50;100.00;65435.88;5060712;28;20091;-77
2021/06/05 03:43:19;;;;;;;117.47;67.97;;;;;;;-145.50;100.00;65435.88;5052901;28;20048;-77
2021/06/05 03:46:08;;;;;;;121.05;68.75;;;;;;;-145.50;100.00;65435.88;5060901;28;20145;-76
2021/06/05 03:48:56;;;;;;;107.47;63.00;;;;;;;-145.50;100.00;65435.88;5047024;28;20061;-76
2021/06/05 03:51:43;;;;;;;115.95;67.68;;;;;;;-145.50;100.00;65435.88;5053029;28;20052;-75
2021/06/05 03:54:30;;;;;;;121.43;70.00;;;;;;;-145.50;100.00;65435.88;5046328;28;20080;-75
2021/06/05 03:57:19;;;;;;;125.93;72.97;;;;;;;-145.50;100.00;65435.88;5057625;28;20053;-76
2021/06/05 04:00:08;;;;;;;;;;;;;;;-145.50;100.00;65435.88;5058436;28;20144;-76
2021/06/05 04:02:55;;;;;;;110.13;65.03;;;;;;;-145.50;100.00;65435.88;5059529;28;20007;-75
2021/06/05 04:05:44;;;;;;;112.78;64.05;;;;;;;-145.50;100.00;65435.88;5049411;28;20820;-75
2021/06/05 04:08:31;;;;;;;117.80;66.65;;;;;;;-145.50;100.00;65435.88;5053466;28;20583;-75
2021/06/05 04:11:22;;;;;;;117.88;66.80;;;;;;;-145.50;100.00;65435.88;5051663;28;20475;-75
2021/06/05 04:14:47;;;;;;;119.68;67.68;;;;;;;-145.50;100.00;65435.88;5059186;28;20134;-74
2021/06/05 04:18:14;;;;;;;117.63;68.90;;;;;;;-145.50;100.00;65435.88;5054910;28;20148;-75
2021/06/05 04:21:25;;;;;;;121.28;65.43;;;;;;;-145.50;100.00;65435.88;5074715;28;20415;-75
2021/06/05 04:24:50;;;;;;;112.72;64.07;;;;;;;-145.50;100.00;65435.88;5062981;28;21618;-75
2021/06/05 04:28:17;;;;;;;127.35;67.60;;;;;;;-145.50;100.00;65435.88;5057208;28;20247;-74
2021/06/05 04:31:06;;;;;;;126.90;66.22;;;;;;;-145.50;100.00;65435.88;5062275;28;20163;-74
2021/06/05 04:34:31;;;;;;;114.13;59.90;;;;;;;-145.50;100.00;65435.88;5048610;28;20056;-75
2021/06/05 04:37:56;;;;;;;110.40;60.58;;;;;;;-145.50;100.00;65435.88;5061711;28;20522;-74
2021/06/05 04:40:44;;;;;;;114.22;63.97;;;;;;;-145.50;100.00;65435.88;5061121;28;20806;-75
2021/06/05 04:43:32;;;;;;;123.60;65.38;;;;;;;-145.50;100.00;65435.88;5072481;28;20567;-74
2021/06/05 04:46:20;;;;;;;126.97;64.63;;;;;;;-145.50;100.00;65435.88;5057965;28;20107;-74
2021/06/05 04:49:08;;;;;;;;;;;;;;;-145.50;100.00;65435.88;5051226;28;20150;-74
2021/06/05 04:51:57;;;;;;;120.60;62.67;;;;;;;-145.50;100.00;65435.88;5058488;28;20233;-74
2021/06/05 04:54:51;;;;;;;124.07;63.90;;;;;;;-145.50;100.00;65435.88;5058560;28;20140;-74
2021/06/05 04:57:39;;;;;;;125.95;65.05;;;;;;;-145.50;100.00;65435.88;5059803;28;20080;-75
2021/06/05 05:00:28;;;;;;;121.13;60.30;;;;;;;-145.50;100.00;65435.88;5045911;28;20080;-75
2021/06/05 05:03:19;;;;;;;116.60;62.67;;;;;;;-145.50;100.00;65435.88;5055249;28;20292;-75
2021/06/05 05:06:11;;;;;;;115.70;60.22;;;;;;;-145.50;100.00;65435.88;5049622;28;20139;-75
2021/06/05 05:09:00;;;;;;;115.35;61.30;;;;;;;-145.50;100.00;65435.88;5062127;28;20410;-75
2021/06/05 05:11:48;;;;;;;;;;;;;;;-145.50;100.00;65435.88;5054391;28;20172;-75
2021/06/05 05:14:41;;;;;;;114.45;60.60;;;;;;;-145.50;100.00;65435.88;5053802;28;20775;-75
2021/06/05 05:17:33;;;;;;;110.63;57.70;;;;;;;-145.50;100.00;65435.88;5060407;28;20144;-74
2021/06/05 05:20:23;;;;;;;115.78;61.40;;;;;;;-145.50;100.00;65435.88;5072605;28;20084;-75
2021/06/05 05:23:11;;;;;;;116.13;60.05;;;;;;;-145.50;100.00;65435.88;5050046;28;20080;-75
2021/06/05 05:26:01;;;;;;;114.03;61.17;;;;;;;-145.50;100.00;65435.88;5056700;28;20080;-76
2021/06/05 05:28:52;;;;;;;123.43;60.70;;;;;;;-145.50;100.00;65435.88;5046972;28;20663;-76
2021/06/05 05:31:40;;;;;;;119.18;61.70;;;;;;;-145.50;100.00;65435.88;5058213;28;20059;-75
2021/06/05 05:34:28;;;;;;;;;;;;;;;-145.50;100.00;65435.88;5053437;28;20052;-73
2021/06/05 05:37:15;;;;;;;115.00;59.78;;;;;;;-145.50;100.00;65435.88;5065466;28;20030;-75
2021/06/05 05:40:04;;;;;;;103.22;56.08;;;;;;;-145.50;100.00;65435.88;5057539;28;20076;-75
2021/06/05 05:42:56;;;;;;;113.88;59.05;;;;;;;-145.50;100.00;65435.88;5055998;28;20163;-75
2021/06/05 05:45:47;;;;;;;99.70;55.83;;;;;;;-145.50;100.00;65435.88;5059812;28;20571;-75
2021/06/05 05:49:12;;;;;;;101.55;54.58;;;;;;;-145.50;100.00;65435.88;5061454;28;20083;-75
2021/06/05 05:52:37;;;;;;;98.80;53.05;;;;;;;-145.50;100.00;65435.88;5052564;28;20060;-75
2021/06/05 05:55:25;;;;;;;108.85;56.30;;;;;;;-145.50;100.00;65435.88;5055956;28;20267;-73
2021/06/05 05:58:14;;;;;;;105.55;56.53;;;;;;;-145.50;100.00;65435.88;5054871;28;20067;-74
2021/06/05 06:01:04;;;;;;;99.90;55.20;;;;;;;-145.50;100.00;65435.88;5056469;28;20135;-76
2021/06/05 06:03:53;;;;;;;104.25;55.08;;;;;;;-145.50;100.00;65435.88;5054647;28;20113;-75
2021/06/05 06:06:41;;;;;;;106.60;57.10;;;;;;;-145.50;100.00;65435.88;5058229;28;20189;-76
2021/06/05 06:09:28;;;;;;;107.25;55.88;;;;;;;-145.50;100.00;65435.88;5055091;28;20102;-76
2021/06/05 06:12:16;;;;;;;101.35;54.78;;;;;;;-145.50;100.00;65435.88;5049140;28;20101;-76
2021/06/05 06:15:10;;;;;;;98.18;52.58;;;;;;;-145.50;100.00;65435.88;5058999;28;20052;-76
2021/06/05 06:17:59;;;;;;;98.18;52.60;;;;;;;-145.50;100.00;65435.88;5046213;28;20131;-77
2021/06/05 06:20:52;;;;;;;102.35;54.65;;;;;;;-145.50;100.00;65435.88;5055981;28;20052;-76
2021/06/05 06:23:47;;;;;;;99.30;54.17;;;;;;;-145.50;100.00;65435.88;5059943;28;20143;-76
2021/06/05 06:26:38;;;;;;;91.30;49.65;;;;;;;-145.50;100.00;65435.88;5054452;28;20052;-76
2021/06/05 06:29:31;;;;;;;96.70;50.40;;;;;;;-145.50;100.00;65435.88;5053188;28;20051;-76
2021/06/05 06:32:19;;;;;;;93.47;50.22;;;;;;;-145.50;100.00;65435.88;5060620;28;20079;-76
2021/06/05 06:35:06;;;;;;;93.47;49.45;;;;;;;-145.50;100.00;65435.88;5051766;28;20127;-77
2021/06/05 06:37:54;;;;;;;86.57;48.37;;;;;;;-145.50;100.00;65435.88;5058027;28;20135;-74
2021/06/05 06:40:43;;;;;;;;;;;;;;;-145.50;100.00;65435.88;5065151;28;20373;-74
2021/06/05 06:43:32;;;;;;;80.40;46.75;;;;;;;-145.50;100.00;65435.88;5055644;28;20042;-74
2021/06/05 06:46:24;;;;;;;79.68;44.30;;;;;;;-145.50;100.00;65435.88;5049408;28;20135;-74
2021/06/05 06:49:16;;;;;;;79.70;44.60;;;;;;;-145.50;100.00;65435.88;5061625;28;20083;-74
2021/06/05 06:52:04;;;;;;;72.43;41.42;;;;;;;-145.50;100.00;65435.88;5046170;28;20092;-74
2021/06/05 06:54:54;;;;;;;77.25;42.78;;;;;;;-145.50;100.00;65435.88;5059986;28;20082;-74
2021/06/05 06:57:58;;;;;;;81.72;41.58;;;;;;;-145.50;100.00;65435.88;5041321;28;20286;-74
2021/06/05 07:01:28;;;;;;;70.40;41.08;;;;;;;-145.50;100.00;65435.88;5059416;28;20427;-75
2021/06/05 07:04:18;;;;;;;62.97;37.70;;;;;;;-145.50;100.00;65435.88;5050254;28;20518;-75
2021/06/05 07:06:49;;;;;;;62.65;38.25;;;;;;;-145.50;100.00;65435.88;5054013;28;20190;-74
2021/06/05 07:09:51;;;;;;;62.00;36.15;;;;;;;-145.50;100.00;65435.88;5052596;28;20151;-74
2021/06/05 07:13:10;;;;;;;62.13;36.85;;;;;;;-145.50;100.00;65435.88;5051980;28;20140;-74
2021/06/05 07:16:16;;;;;;;49.60;31.50;;;;;;;-145.50;100.00;65435.88;5059762;28;20151;-74
2021/06/05 07:18:46;;;;;;;51.90;29.88;;;;;;;-145.50;100.00;65435.88;5047348;28;20485;-74
2021/06/05 07:22:12;;;;;;;45.40;28.88;;;;;;;-145.50;100.00;65435.88;5050543;28;20084;-75
2021/06/05 07:25:10;;;;;;;49.20;29.85;;;;;;;-145.50;100.00;65435.88;5062261;28;20140;-74
2021/06/05 07:28:18;;;;;;;47.63;29.80;;;;;;;-145.50;100.00;65435.88;5058847;28;20137;-74
2021/06/05 07:30:54;;;;;;;46.85;28.98;;;;;;;-145.50;100.00;65435.88;5051521;28;20086;-75
2021/06/05 07:34:00;;;;;;;40.03;25.98;;;;;;;-145.50;100.00;65435.88;5049722;28;20160;-74
2021/06/05 07:36:56;;;;;;;46.42;27.20;;;;;;;-145.50;100.00;65435.88;5051570;28;20445;-75
2021/06/05 07:40:10;;;;;;;45.65;28.42;;;;;;;-145.50;100.00;65435.88;5052316;28;20126;-75
2021/06/05 07:42:37;;;;;;;49.15;29.08;;;;;;;-145.50;100.00;65435.88;5048384;28;20087;-75
2021/06/05 07:45:09;;;;;;;41.85;27.42;;;;;;;-145.50;100.00;65435.88;5061955;28;20080;-75
2021/06/05 07:47:36;;;;;;;42.33;28.63;;;;;;;-145.50;100.00;65435.88;5048992;28;20440;-75
2021/06/05 07:50:07;;;;;;;44.63;28.02;;;;;;;-145.50;100.00;65435.88;5062788;28;20076;-75
2021/06/05 07:52:33;;;;;;;39.75;26.45;;;;;;;-145.50;100.00;65435.88;5056288;28;20148;-75
2021/06/05 07:55:00;;;;;;;39.38;26.10;;;;;;;-145.50;100.00;65435.88;5059732;28;20058;-75
2021/06/05 07:57:27;;;;;;;41.03;25.50;;;;;;;-145.50;100.00;65435.88;5058322;28;20139;-74
2021/06/05 07:59:53;;;;;;;37.88;25.65;;;;;;;-145.50;100.00;65435.88;5061911;28;20126;-74
2021/06/05 08:02:20;;;;;;;38.28;25.95;;;;;;;-145.50;100.00;65435.88;5057648;28;20757;-74
2021/06/05 08:04:46;;;;;;;35.80;25.77;;;;;;;-145.50;100.00;65435.88;5050478;28;20166;-75
2021/06/05 08:07:14;;;;;;;39.35;25.13;;;;;;;-145.50;100.00;65435.88;5063317;28;20110;-75
2021/06/05 08:09:41;;;;;;;35.05;24.42;;;;;;;-145.50;100.00;65435.88;5050303;28;20137;-74
2021/06/05 08:12:08;;;;;;;35.28;23.83;;;;;;;-145.50;100.00;65435.88;5060973;28;20659;-74
2021/06/05 08:14:35;;;;;;;37.58;25.50;;;;;;;-145.50;100.00;65435.88;5057223;28;20543;-74
2021/06/05 08:17:02;;;;;;;35.28;24.80;;;;;;;-145.50;100.00;65435.88;5056903;28;20782;-75
2021/06/05 08:19:29;;;;;;;32.67;23.23;;;;;;;-145.50;100.00;65435.88;5057745;28;20127;-74
2021/06/05 08:21:56;;;;;;;34.67;23.88;;;;;;;-145.50;100.00;65435.88;5060789;28;20118;-74
2021/06/05 08:24:23;;;;;;;30.08;21.10;;;;;;;-145.50;100.00;65435.88;5061408;28;20076;-74
2021/06/05 08:26:51;;;;;;;35.25;22.73;;;;;;;-145.50;100.00;65435.88;5053700;28;20095;-74
2021/06/05 08:29:18;;;;;;;32.97;22.92;;;;;;;-145.50;100.00;65435.88;5051725;28;20561;-74
2021/06/05 08:31:45;;;;;;;33.83;22.20;;;;;;;-145.50;100.00;65435.88;5049749;28;20167;-74
2021/06/05 08:34:11;;;;;;;31.38;23.00;;;;;;;-145.50;100.00;65435.88;5062802;28;20046;-74
2021/06/05 08:36:38;;;;;;;31.35;22.20;;;;;;;-145.50;100.00;65435.88;5054719;28;20131;-74
2021/06/05 08:39:06;;;;;;;29.60;22.02;;;;;;;-145.50;100.00;65435.88;5061545;28;20140;-74
2021/06/05 08:41:46;;;;;;;29.05;21.15;;;;;;;-145.50;100.00;65435.88;5052954;28;20145;-74
2021/06/05 08:44:24;;;;;;;29.55;21.13;;;;;;;-145.50;100.00;65435.88;5051127;28;20123;-74
2021/06/05 08:46:56;;;;;;;28.73;20.83;;;;;;;-145.50;100.00;65435.88;5061032;28;20094;-74
2021/06/05 08:49:29;;;;;;;26.88;20.25;;;;;;;-145.50;100.00;65435.88;5056914;28;20546;-74
2021/06/05 08:52:15;;;;;;;31.15;22.42;;;;;;;-145.50;100.00;65435.88;5061286;28;20149;-74
2021/06/05 08:54:56;;;;;;;30.70;21.08;;;;;;;-145.50;100.00;65435.88;5047551;28;20147;-74
2021/06/05 08:57:40;;;;;;;29.80;21.38;;;;;;;-145.50;100.00;65435.88;5055703;28;20143;-74
2021/06/05 09:00:13;;;;;;;28.73;21.42;;;;;;;-145.50;100.00;65435.88;5051818;28;20526;-74
2021/06/05 09:02:43;;;;;;;28.73;19.98;;;;;;;-145.50;100.00;65435.88;5059738;28;20051;-74
2021/06/05 09:05:15;;;;;;;30.13;21.13;;;;;;;-145.50;100.00;65435.88;5050202;28;20060;-74
2021/06/05 09:07:42;;;;;;;28.67;20.02;;;;;;;-145.50;100.00;65435.88;5053728;28;20111;-75
2021/06/05 09:10:12;;;;;;;31.52;21.42;;;;;;;-145.50;100.00;65435.88;5049697;28;20357;-74
2021/06/05 09:12:39;;;;;;;25.38;19.33;;;;;;;-145.50;100.00;65435.88;5059366;28;20643;-75
2021/06/05 09:15:07;;;;;;;26.48;19.33;;;;;;;-145.50;100.00;65435.88;5050546;28;20135;-74
2021/06/05 09:17:45;;;;;;;28.73;18.48;;;;;;;-145.50;100.00;65435.88;5062014;28;20142;-74
2021/06/05 09:20:38;;;;;;;24.98;18.30;;;;;;;-145.50;100.00;65435.88;5057097;28;20060;-74
2021/06/05 09:23:34;;;;;;;22.52;17.48;;;;;;;-145.50;100.00;65435.88;5066683;28;20095;-74
2021/06/05 09:26:26;;;;;;;22.63;17.50;;;;;;;-145.50;100.00;65435.88;5054783;28;20044;-74
2021/06/05 09:29:20;;;;;;;22.58;17.70;;;;;;;-145.50;100.00;65435.88;5062828;28;20088;-74
2021/06/05 09:31:55;;;;;;;21.40;16.13;;;;;;;-145.50;100.00;65435.88;5068558;28;20090;-74
2021/06/05 09:34:28;;;;;;;21.08;15.88;;;;;;;-145.50;100.00;65435.88;5061205;28;20052;-74
2021/06/05 09:36:55;;;;;;;19.98;16.23;;;;;;;-145.50;100.00;65435.88;5057523;28;20132;-74
2021/06/05 09:39:38;;;;;;;19.15;15.15;;;;;;;-145.50;100.00;65435.88;5053992;28;20487;-74
2021/06/05 09:42:08;;;;;;;19.67;14.25;;;;;;;-145.50;100.00;65435.88;5057577;28;20099;-74
2021/06/05 09:44:47;;;;;;;17.98;13.93;;;;;;;-145.50;100.00;65435.88;5051455;28;20083;-74
2021/06/05 09:47:17;;;;;;;18.88;14.32;;;;;;;-145.50;100.00;65435.88;5058184;28;20109;-74
2021/06/05 09:49:48;;;;;;;18.13;14.98;;;;;;;-145.50;100.00;65435.88;5055844;28;20536;-74
2021/06/05 09:52:34;;;;;;;19.85;16.05;;;;;;;-145.50;100.00;65435.88;5063646;28;20139;-74
2021/06/05 09:55:13;;;;;;;18.70;15.02;;;;;;;-145.50;100.00;65435.88;5052636;28;20052;-76
2021/06/05 09:57:43;;;;;;;24.00;16.83;;;;;;;-145.50;100.00;65435.88;5061166;28;20821;-73
2021/06/05 10:00:27;;;;;;;20.83;16.50;;;;;;;-145.50;100.00;65435.88;5047075;28;20504;-73
2021/06/05 10:03:17;;;;;;;22.17;16.92;;;;;;;-145.50;100.00;65435.88;5053896;28;20140;-73
2021/06/05 10:05:46;;;;;;;20.23;16.23;;;;;;;-145.50;100.00;65435.88;5058252;28;20496;-74
2021/06/05 10:08:39;;;;;;;21.38;17.00;;;;;;;-145.50;100.00;65435.88;5057650;28;20611;-75
2021/06/05 10:11:17;;;;;;;18.98;16.75;;;;;;;-145.50;100.00;65435.88;5049717;28;20148;-74
2021/06/05 10:13:50;;;;;;;20.75;15.93;;;;;;;-145.50;100.00;65435.88;5053674;28;20514;-74
2021/06/05 10:16:21;;;;;;;20.92;16.17;;;;;;;-145.50;100.00;65435.88;5047266;28;20131;-73
2021/06/05 10:18:57;;;;;;;21.55;16.30;;;;;;;-145.50;100.00;65435.88;5058391;28;20055;-74
2021/06/05 10:21:34;;;;;;;19.10;16.50;;;;;;;-145.50;100.00;65435.88;5050564;28;20139;-74
2021/06/05 10:24:10;;;;;;;19.48;15.85;;;;;;;-145.50;100.00;65435.88;5058501;28;20505;-74
2021/06/05 10:26:43;;;;;;;18.80;16.80;;;;;;;-145.50;100.00;65435.88;5059127;28;20108;-74
2021/06/05 10:29:36;;;;;;;21.13;15.95;;;;;;;-145.50;100.00;65435.88;5051075;28;20564;-74
2021/06/05 10:32:10;;;;;;;18.73;16.10;;;;;;;-145.50;100.00;65435.88;5055405;28;20084;-73
2021/06/05 10:34:49;;;;;;;18.35;15.00;;;;;;;-145.50;100.00;65435.88;5053810;28;20129;-74
2021/06/05 10:37:22;;;;;;;19.63;15.40;;;;;;;-145.50;100.00;65435.88;5062239;28;20114;-74
2021/06/05 10:39:50;;;;;;;18.42;15.20;;;;;;;-145.50;100.00;65435.88;5053350;28;20511;-75
2021/06/05 10:42:38;;;;;;;18.30;14.82;;;;;;;-145.50;100.00;65435.88;5054731;28;20079;-74
2021/06/05 10:45:13;;;;;;;18.50;15.15;;;;;;;-145.50;100.00;65435.88;5039389;28;20380;-74
2021/06/05 10:47:46;;;;;;;18.38;15.55;;;;;;;-145.50;100.00;65435.88;5059353;28;20140;-74
2021/06/05 10:50:20;;;;;;;17.65;13.93;;;;;;;-145.50;100.00;65435.88;5043498;28;20075;-74
2021/06/05 10:52:59;;;;;;;17.85;15.10;;;;;;;-145.50;100.00;65435.88;5059883;28;20133;-74
2021/06/05 10:55:33;;;;;;;18.55;14.63;;;;;;;-145.50;100.00;65435.88;5054689;28;20052;-75
2021/06/05 10:58:25;;;;;;;17.27;15.25;;;;;;;-145.50;100.00;65435.88;5056487;28;20048;-76
2021/06/05 11:01:00;;;;;;;17.50;15.13;;;;;;;-145.50;100.00;65435.88;5053632;28;20110;-76
2021/06/05 11:03:27;;;;;;;20.75;15.88;;;;;;;-145.50;100.00;65435.88;5056631;28;20081;-76
2021/06/05 11:06:12;;;;;;;18.77;14.35;;;;;;;-145.50;100.00;65435.88;5053611;28;20086;-76
2021/06/05 11:09:00;;;;;;;20.00;15.30;;;;;;;-145.50;100.00;65435.88;5058351;28;20052;-76
2021/06/05 11:11:38;;;;;;;17.10;14.98;;;;;;;-145.50;100.00;65435.88;5054185;28;20084;-76
2021/06/05 11:14:09;;;;;;;19.10;15.63;;;;;;;-145.50;100.00;65435.88;5058777;28;20044;-77
2021/06/05 11:16:57;;;;;;;18.50;16.50;;;;;;;-145.50;100.00;65435.88;5062808;28;20138;-76
2021/06/05 11:19:41;;;;;;;22.13;16.88;;;;;;;-145.50;100.00;65435.88;5055991;28;20567;-77
2021/06/05 11:22:15;;;;;;;21.08;16.25;;;;;;;-145.50;100.00;65435.88;5055314;28;20071;-76
2021/06/05 11:25:03;;;;;;;19.25;15.95;;;;;;;-145.50;100.00;65435.88;5059497;28;20143;-77
2021/06/05 11:27:36;;;;;;;21.90;16.17;;;;;;;-145.50;100.00;65435.88;5064956;28;20472;-76
2021/06/05 11:30:21;;;;;;;19.08;16.17;;;;;;;-145.50;100.00;65435.88;5061002;28;20494;-76
2021/06/05 11:33:09;;;;;;;21.38;16.50;;;;;;;-145.50;100.00;65435.88;5061580;28;20060;-75
2021/06/05 11:35:49;;;;;;;18.30;14.82;;;;;;;-145.50;100.00;65435.88;5056934;28;20543;-75
2021/06/05 11:38:19;;;;;;;18.30;15.32;;;;;;;-145.50;100.00;65435.88;5065587;28;20084;-74
2021/06/05 11:41:03;;;;;;;18.45;15.25;;;;;;;-145.50;100.00;65435.88;5055288;28;20475;-74
2021/06/05 11:43:33;;;;;;;18.95;16.92;;;;;;;-145.50;100.00;65435.88;5061070;28;20130;-75
2021/06/05 11:46:31;;;;;;;20.30;16.25;;;;;;;-145.50;100.00;65435.88;5057081;28;20082;-75
2021/06/05 11:49:04;;;;;;;18.98;15.05;;;;;;;-145.50;100.00;65435.88;5055988;28;20058;-78
2021/06/05 11:51:34;;;;;;;17.52;14.88;;;;;;;-145.50;100.00;65435.88;5055699;28;20076;-75
2021/06/05 11:54:10;;;;;;;18.98;14.40;;;;;;;-145.50;100.00;65435.88;5062705;28;20088;-75
2021/06/05 11:56:51;;;;;;;18.52;15.43;;;;;;;-145.50;100.00;65435.88;5056026;28;20080;-74
2021/06/05 11:59:28;;;;;;;19.33;15.32;;;;;;;-145.50;100.00;65435.88;5076781;28;20503;-75
2021/06/05 12:02:32;;;;;;;19.48;15.93;;;;;;;-145.50;100.00;65435.88;5051543;28;20048;-74
2021/06/05 12:05:05;;;;;;;19.70;14.60;;;;;;;-145.50;100.00;65435.88;5075276;28;20408;-75
2021/06/05 12:07:38;;;;;;;18.30;16.30;;;;;;;-145.50;100.00;65435.88;5055935;28;20131;-75
2021/06/05 12:10:07;;;;;;;19.00;16.60;;;;;;;-145.50;100.00;65435.88;5063180;28;20056;-75
2021/06/05 12:12:57;;;;;;;18.25;16.20;;;;;;;-145.50;100.00;65435.88;5051037;28;20053;-76
2021/06/05 12:15:39;;;;;;;20.80;15.77;;;;;;;-145.50;100.00;65435.88;5057573;28;20127;-74
2021/06/05 12:18:20;;;;;;;23.40;17.02;;;;;;;-145.50;100.00;65435.88;5054884;28;20516;-75
2021/06/05 12:20:58;;;;;;;18.98;15.98;;;;;;;-145.50;100.00;65435.88;5062285;28;20072;-75
2021/06/05 12:23:37;;;;;;;21.08;16.08;;;;;;;-145.50;100.00;65435.88;5066223;28;20060;-77
2021/06/05 12:26:09;;;;;;;20.25;16.75;;;;;;;-145.50;100.00;65435.88;5054167;28;20063;-75
2021/06/05 12:28:49;;;;;;;19.95;16.73;;;;;;;-145.50;100.00;65435.88;5062850;28;20099;-75
2021/06/05 12:31:41;;;;;;;21.08;17.13;;;;;;;-145.50;100.00;65435.88;5046371;28;20143;-75
2021/06/05 12:34:47;;;;;;;21.20;16.90;;;;;;;-145.50;100.00;65435.88;5062608;28;20060;-75